Time;durP1;ratioP1;P1;durP2;ratioP2;P2;SDS_P1;SDS_P2;PMS_P1;PMS_P2;Temp;Humidity;BMP_temperature;BMP_pressure;BME280_temperature;BME280_humidity;BME280_pressure;Samples;Min_cycle;Max_cycle;Signal;HPM_P1;HPM_P2
2023/10/29 00:00:30;;;;;;;4.83;1.50;;;12.20;99.90;;;;;;5074430;28;20570;-76
2023/10/29 00:02:55;;;;;;;4.37;1.80;;;12.20;99.90;;;;;;5075724;28;20639;-76
2023/10/29 00:05:21;;;;;;;4.70;1.70;;;12.20;99.90;;;;;;5074253;28;20218;-76
2023/10/29 00:07:47;;;;;;;3.37;1.67;;;12.20;99.90;;;;;;5075736;28;20240;-76
2023/10/29 00:10:13;;;;;;;4.67;1.53;;;12.20;99.90;;;;;;5075505;28;20163;-76
2023/10/29 00:12:38;;;;;;;4.03;1.63;;;12.10;99.90;;;;;;5075831;28;20191;-76
2023/10/29 00:15:05;;;;;;;3.47;1.47;;;12.30;99.90;;;;;;5075531;28;20186;-75
2023/10/29 00:17:31;;;;;;;3.10;1.40;;;12.30;99.90;;;;;;5075699;28;20164;-76
2023/10/29 00:19:59;;;;;;;5.90;1.90;;;12.40;99.90;;;;;;5075881;28;20308;-76
2023/10/29 00:22:26;;;;;;;3.80;1.33;;;12.40;99.90;;;;;;5075359;28;20168;-76
2023/10/29 00:24:52;;;;;;;2.30;1.50;;;12.40;99.90;;;;;;5075342;28;20278;-76
2023/10/29 00:27:17;;;;;;;3.70;1.40;;;12.40;99.90;;;;;;5075569;28;20617;-76
2023/10/29 00:29:43;;;;;;;3.30;1.37;;;12.40;99.90;;;;;;5074462;28;20269;-76
2023/10/29 00:32:08;;;;;;;4.57;1.57;;;12.40;99.90;;;;;;5074132;28;20171;-76
2023/10/29 00:34:34;;;;;;;3.90;1.33;;;12.40;99.90;;;;;;5074074;28;20735;-76
2023/10/29 00:37:00;;;;;;;4.10;1.50;;;12.40;99.90;;;;;;5072585;28;20546;-76
2023/10/29 00:39:25;;;;;;;3.20;1.67;;;12.50;99.90;;;;;;5073987;28;20191;-76
2023/10/29 00:41:51;;;;;;;2.17;1.40;;;12.40;99.90;;;;;;5072448;28;20171;-75
2023/10/29 00:44:16;;;;;;;3.70;1.33;;;12.50;99.90;;;;;;5073987;28;20190;-75
2023/10/29 00:46:42;;;;;;;2.37;1.43;;;12.50;99.90;;;;;;5074030;28;20175;-76
2023/10/29 00:49:09;;;;;;;3.73;1.30;;;12.40;99.90;;;;;;5073543;28;20250;-76
2023/10/29 00:51:35;;;;;;;3.93;1.50;;;12.40;99.90;;;;;;5073743;28;20711;-76
2023/10/29 00:54:01;;;;;;;5.10;1.50;;;12.50;99.90;;;;;;5073835;28;20175;-76
2023/10/29 00:56:26;;;;;;;4.63;2.03;;;12.50;99.90;;;;;;5073912;28;20182;-76
2023/10/29 00:58:52;;;;;;;4.37;1.50;;;12.50;99.90;;;;;;5073432;28;20190;-76
2023/10/29 01:01:19;;;;;;;3.23;1.20;;;12.50;99.90;;;;;;5073461;28;20178;-75
2023/10/29 01:03:44;;;;;;;4.77;1.20;;;12.50;99.90;;;;;;5073407;28;20170;-76
2023/10/29 01:06:10;;;;;;;3.70;1.20;;;12.60;99.90;;;;;;5073363;28;20190;-76
2023/10/29 01:08:37;;;;;;;3.93;1.53;;;12.60;99.90;;;;;;5073367;28;20241;-76
2023/10/29 01:11:05;;;;;;;4.53;1.63;;;12.60;99.90;;;;;;5073212;28;20266;-76
2023/10/29 01:13:32;;;;;;;5.63;1.77;;;12.50;99.90;;;;;;5073233;28;20178;-76
2023/10/29 01:15:58;;;;;;;3.70;1.30;;;12.60;99.90;;;;;;5073400;28;20532;-76
2023/10/29 01:18:23;;;;;;;7.23;1.60;;;12.60;99.90;;;;;;5073142;28;20186;-74
2023/10/29 01:20:49;;;;;;;6.53;1.60;;;12.50;99.90;;;;;;5073117;28;20173;-76
2023/10/29 01:23:14;;;;;;;4.90;1.43;;;12.50;99.90;;;;;;5073039;28;20191;-76
2023/10/29 01:25:41;;;;;;;6.47;1.63;;;12.60;99.90;;;;;;5072935;28;20566;-75
2023/10/29 01:28:07;;;;;;;4.40;1.40;;;12.50;99.90;;;;;;5035470;28;1068757;-76
2023/10/29 01:30:32;;;;;;;5.63;1.50;;;12.50;99.90;;;;;;5073964;28;20250;-76
2023/10/29 01:32:59;;;;;;;5.50;1.77;;;12.50;99.90;;;;;;5073948;28;20167;-75
2023/10/29 01:35:24;;;;;;;7.47;1.80;;;12.70;99.90;;;;;;5073964;28;20210;-76
2023/10/29 01:37:51;;;;;;;3.67;1.40;;;12.60;99.90;;;;;;5073697;28;20542;-75
2023/10/29 01:40:16;;;;;;;2.70;1.20;;;12.60;99.90;;;;;;5074034;28;20587;-76
2023/10/29 01:42:43;;;;;;;3.30;1.33;;;12.60;99.90;;;;;;5073694;28;20179;-75
2023/10/29 01:45:10;;;;;;;3.97;1.50;;;12.60;99.90;;;;;;5073796;28;20182;-75
2023/10/29 01:47:35;;;;;;;4.20;1.40;;;12.60;99.90;;;;;;5072887;28;20172;-75
2023/10/29 01:50:01;;;;;;;2.47;1.40;;;12.60;99.90;;;;;;5073786;28;20254;-76
2023/10/29 01:52:26;;;;;;;8.67;1.30;;;12.60;99.90;;;;;;5073624;28;20194;-75
2023/10/29 01:54:52;;;;;;;3.77;1.40;;;12.60;99.90;;;;;;5073735;28;20617;-76
2023/10/29 01:57:18;;;;;;;5.93;1.60;;;12.60;99.90;;;;;;5073845;28;20174;-76
2023/10/29 01:59:43;;;;;;;5.10;1.40;;;12.60;99.90;;;;;;5072435;28;20284;-76
2023/10/29 02:02:09;;;;;;;4.03;1.57;;;12.60;99.90;;;;;;5071968;28;20217;-76
2023/10/29 02:04:35;;;;;;;4.43;1.33;;;12.60;99.90;;;;;;5073187;28;20191;-75
2023/10/29 02:07:00;;;;;;;3.87;1.60;;;12.60;99.90;;;;;;5073144;28;20174;-76
2023/10/29 02:09:26;;;;;;;3.57;1.60;;;12.60;99.90;;;;;;5073351;28;20175;-76
2023/10/29 02:11:51;;;;;;;4.27;1.27;;;12.60;99.90;;;;;;5073048;28;20575;-76
2023/10/29 02:14:17;;;;;;;4.30;1.07;;;12.60;99.90;;;;;;5073038;28;20190;-76
2023/10/29 02:16:43;;;;;;;2.67;1.40;;;12.60;99.90;;;;;;5073339;28;20194;-76
2023/10/29 02:19:08;;;;;;;5.80;1.50;;;12.60;99.90;;;;;;5071717;28;20252;-76
2023/10/29 02:21:34;;;;;;;6.10;1.30;;;12.60;99.90;;;;;;5073169;28;20175;-76
2023/10/29 02:24:01;;;;;;;5.57;1.53;;;12.60;99.90;;;;;;5072818;28;20171;-76
2023/10/29 02:26:27;;;;;;;2.97;1.40;;;12.60;99.90;;;;;;5072789;28;20163;-76
2023/10/29 02:28:52;;;;;;;6.83;1.50;;;12.50;99.90;;;;;;5072791;28;20194;-77
2023/10/29 02:31:21;;;;;;;2.70;1.30;;;12.60;99.90;;;;;;5072796;28;20175;-76
2023/10/29 02:33:47;;;;;;;5.37;1.50;;;12.50;99.90;;;;;;5072707;28;20175;-76
2023/10/29 02:36:13;;;;;;;6.33;1.50;;;12.50;99.90;;;;;;5072505;28;20245;-76
2023/10/29 02:38:43;;;;;;;3.90;1.40;;;12.50;99.90;;;;;;5072648;28;20228;-76
2023/10/29 02:41:08;;;;;;;4.20;1.27;;;12.50;99.90;;;;;;5072647;28;20603;-75
2023/10/29 02:43:34;;;;;;;2.77;1.23;;;12.50;99.90;;;;;;5072653;28;20231;-76
2023/10/29 02:46:00;;;;;;;5.00;1.30;;;12.50;99.90;;;;;;5072764;28;20654;-75
2023/10/29 02:48:26;;;;;;;2.83;1.20;;;12.40;99.90;;;;;;5072662;28;20181;-77
2023/10/29 02:50:53;;;;;;;2.47;1.30;;;12.50;99.90;;;;;;5072757;28;20767;-76
2023/10/29 02:53:19;;;;;;;6.53;1.73;;;12.50;99.90;;;;;;5072939;28;20476;-76
2023/10/29 02:55:45;;;;;;;3.47;1.30;;;12.60;99.90;;;;;;5072372;28;20198;-76
2023/10/29 02:58:11;;;;;;;4.87;1.50;;;12.50;99.90;;;;;;5072285;28;20198;-76
2023/10/29 03:00:36;;;;;;;6.30;1.30;;;12.50;99.90;;;;;;5071492;28;20173;-76
2023/10/29 03:03:02;;;;;;;5.43;1.53;;;12.60;99.90;;;;;;5072279;28;20584;-75
2023/10/29 03:05:27;;;;;;;3.07;1.13;;;12.60;99.90;;;;;;5072662;28;20522;-77
2023/10/29 03:07:53;;;;;;;5.03;1.40;;;12.60;99.90;;;;;;5072454;28;20229;-76
2023/10/29 03:10:19;;;;;;;4.77;1.07;;;12.60;99.90;;;;;;5072142;28;20163;-76
2023/10/29 03:12:45;;;;;;;5.30;1.50;;;12.60;99.90;;;;;;5072223;28;20171;-75
2023/10/29 03:15:10;;;;;;;3.50;1.33;;;12.60;99.90;;;;;;5072108;28;20201;-76
2023/10/29 03:17:36;;;;;;;5.00;1.20;;;12.60;99.90;;;;;;5072285;28;20178;-76
2023/10/29 03:20:01;;;;;;;4.93;1.13;;;12.60;99.90;;;;;;5072078;28;20305;-75
2023/10/29 03:22:27;;;;;;;6.47;1.70;;;12.60;99.90;;;;;;5072073;28;20179;-76
2023/10/29 03:24:52;;;;;;;2.77;1.20;;;12.60;99.90;;;;;;5072007;28;20197;-76
2023/10/29 03:27:18;;;;;;;2.27;1.10;;;12.60;99.90;;;;;;5072108;28;20174;-75
2023/10/29 03:29:43;;;;;;;4.23;1.43;;;12.60;99.90;;;;;;5071835;28;20226;-75
2023/10/29 03:32:09;;;;;;;5.40;1.40;;;12.70;99.90;;;;;;5071976;28;20171;-76
2023/10/29 03:34:35;;;;;;;3.20;1.20;;;12.60;99.90;;;;;;5072015;28;20355;-75
2023/10/29 03:37:01;;;;;;;4.07;1.50;;;12.60;99.90;;;;;;5071980;28;20520;-76
2023/10/29 03:39:30;;;;;;;6.03;1.60;;;12.60;99.90;;;;;;5071858;28;20252;-75
2023/10/29 03:41:56;;;;;;;3.50;1.10;;;12.70;99.90;;;;;;5071866;28;20254;-75
2023/10/29 03:44:22;;;;;;;2.17;1.03;;;12.60;99.90;;;;;;5072027;28;20215;-76
2023/10/29 03:46:51;;;;;;;4.07;1.20;;;12.60;99.90;;;;;;5071751;28;20669;-76
2023/10/29 03:49:20;;;;;;;2.70;0.83;;;12.70;99.90;;;;;;5072068;28;20201;-76
2023/10/29 03:51:47;;;;;;;2.80;1.10;;;12.70;99.90;;;;;;5072328;28;20179;-75
2023/10/29 03:54:12;;;;;;;7.93;1.43;;;12.80;99.90;;;;;;5071708;28;20190;-76
2023/10/29 03:56:38;;;;;;;3.73;1.10;;;12.70;99.90;;;;;;5071807;28;20183;-76
2023/10/29 03:59:04;;;;;;;3.03;1.23;;;12.70;99.90;;;;;;5072170;28;20225;-75
2023/10/29 04:01:29;;;;;;;2.97;1.00;;;12.70;99.90;;;;;;5071801;28;20214;-75
2023/10/29 04:03:55;;;;;;;5.90;1.43;;;12.70;99.90;;;;;;5071807;28;20255;-76
2023/10/29 04:06:21;;;;;;;3.83;1.13;;;12.70;99.90;;;;;;5071558;28;20278;-76
2023/10/29 04:08:47;;;;;;;4.27;1.20;;;12.80;99.90;;;;;;5071659;28;20202;-76
2023/10/29 04:11:12;;;;;;;2.50;1.10;;;12.80;99.90;;;;;;5071949;28;20174;-75
2023/10/29 04:13:38;;;;;;;2.37;1.20;;;12.80;99.90;;;;;;5071618;28;20224;-76
2023/10/29 04:16:03;;;;;;;1.10;0.90;;;12.80;99.90;;;;;;5071678;28;20591;-76
2023/10/29 04:18:31;;;;;;;2.30;1.00;;;12.80;99.90;;;;;;5071505;28;20201;-76
2023/10/29 04:20:58;;;;;;;1.80;0.83;;;12.80;99.90;;;;;;5071894;28;20171;-76
2023/10/29 04:23:23;;;;;;;3.37;0.97;;;12.80;99.90;;;;;;5073810;28;20166;-76
2023/10/29 04:25:49;;;;;;;1.30;0.90;;;12.80;99.90;;;;;;5075096;28;20187;-76
2023/10/29 04:28:14;;;;;;;4.77;1.30;;;12.80;99.90;;;;;;5075059;28;20225;-75
2023/10/29 04:30:40;;;;;;;1.97;1.00;;;12.90;99.90;;;;;;5075052;28;20217;-76
2023/10/29 04:33:06;;;;;;;3.07;1.00;;;12.80;99.90;;;;;;5075036;28;20221;-76
2023/10/29 04:35:31;;;;;;;5.00;1.00;;;12.80;99.90;;;;;;5074982;28;20197;-76
2023/10/29 04:37:57;;;;;;;4.13;0.90;;;12.80;99.90;;;;;;5074921;28;20175;-76
2023/10/29 04:40:22;;;;;;;4.70;1.03;;;12.90;99.90;;;;;;5075186;28;20178;-76
2023/10/29 04:42:48;;;;;;;1.97;0.87;;;12.90;99.90;;;;;;5075300;28;20171;-76
2023/10/29 04:45:14;;;;;;;2.73;1.03;;;12.90;99.90;;;;;;5074769;28;20206;-75
2023/10/29 04:47:40;;;;;;;2.80;1.10;;;12.90;99.90;;;;;;5074751;28;20195;-75
2023/10/29 04:50:06;;;;;;;2.73;0.90;;;12.90;99.90;;;;;;5074832;28;20185;-75
2023/10/29 04:52:32;;;;;;;2.03;0.90;;;12.90;99.90;;;;;;5075259;28;20193;-75
2023/10/29 04:55:00;;;;;;;2.67;1.00;;;12.90;99.90;;;;;;5074633;28;20199;-76
2023/10/29 04:57:27;;;;;;;2.07;1.00;;;12.90;99.90;;;;;;5074567;28;20182;-77
2023/10/29 04:59:52;;;;;;;1.57;0.90;;;12.90;99.90;;;;;;5074534;28;20654;-76
2023/10/29 05:02:18;;;;;;;1.73;0.90;;;12.90;99.90;;;;;;5074500;28;20178;-75
2023/10/29 05:04:43;;;;;;;1.77;1.13;;;12.90;99.90;;;;;;5074500;28;20190;-76
2023/10/29 05:07:09;;;;;;;1.40;0.67;;;12.80;99.90;;;;;;5074759;28;20175;-75
2023/10/29 05:09:35;;;;;;;3.23;1.10;;;12.90;99.90;;;;;;5074427;28;20175;-76
2023/10/29 05:12:01;;;;;;;4.20;0.87;;;12.80;99.90;;;;;;5074474;28;20178;-76
2023/10/29 05:14:26;;;;;;;3.23;1.00;;;12.80;99.90;;;;;;5074304;28;20643;-76
2023/10/29 05:16:52;;;;;;;2.67;0.80;;;12.80;99.90;;;;;;5072950;28;20189;-76
2023/10/29 05:19:18;;;;;;;4.30;1.10;;;12.80;99.90;;;;;;5074338;28;20213;-76
2023/10/29 05:21:44;;;;;;;6.60;0.93;;;12.80;99.90;;;;;;5074134;28;20171;-76
2023/10/29 05:24:10;;;;;;;3.37;0.80;;;12.80;99.90;;;;;;5074126;28;20259;-75
2023/10/29 05:26:37;;;;;;;2.87;0.80;;;12.80;99.90;;;;;;5074120;28;20644;-76
2023/10/29 05:29:03;;;;;;;3.13;1.03;;;12.90;99.90;;;;;;5073920;28;20187;-75
2023/10/29 05:31:29;;;;;;;3.63;1.40;;;12.80;99.90;;;;;;5073877;28;20656;-76
2023/10/29 05:33:54;;;;;;;2.33;0.90;;;12.80;99.90;;;;;;5072733;28;20262;-76
2023/10/29 05:36:20;;;;;;;2.47;0.70;;;12.80;99.90;;;;;;5073846;28;20574;-76
2023/10/29 05:38:45;;;;;;;2.10;0.90;;;12.90;99.90;;;;;;5073736;28;20203;-76
2023/10/29 05:41:11;;;;;;;1.80;0.77;;;13.00;99.90;;;;;;5073743;28;20557;-75
2023/10/29 05:43:37;;;;;;;3.43;1.17;;;13.00;99.90;;;;;;5073804;28;20579;-76
2023/10/29 05:46:03;;;;;;;5.80;0.97;;;13.00;99.90;;;;;;5073827;28;20195;-75
2023/10/29 05:48:28;;;;;;;3.23;0.60;;;13.10;99.90;;;;;;5073604;28;20179;-76
2023/10/29 05:50:54;;;;;;;3.07;1.00;;;13.20;99.90;;;;;;5074126;28;20171;-75
2023/10/29 05:53:19;;;;;;;4.47;0.90;;;13.30;99.90;;;;;;5073657;28;20178;-76
2023/10/29 05:55:45;;;;;;;1.47;0.50;;;13.30;99.90;;;;;;5073591;28;20199;-76
2023/10/29 05:58:11;;;;;;;5.37;0.90;;;13.30;99.90;;;;;;5073877;28;20277;-77
2023/10/29 06:00:36;;;;;;;1.70;0.57;;;13.40;99.90;;;;;;5073681;28;20657;-74
2023/10/29 06:03:02;;;;;;;4.03;0.93;;;13.40;99.90;;;;;;5073579;28;20174;-76
2023/10/29 06:05:28;;;;;;;4.83;1.07;;;13.50;99.90;;;;;;5073315;28;20719;-76
2023/10/29 06:07:54;;;;;;;5.17;0.70;;;13.50;99.90;;;;;;5073400;28;20170;-77
2023/10/29 06:10:20;;;;;;;3.23;0.80;;;13.50;99.90;;;;;;5072120;28;20179;-76
2023/10/29 06:12:45;;;;;;;3.47;0.80;;;13.50;99.90;;;;;;5073343;28;20545;-76
2023/10/29 06:15:11;;;;;;;4.50;1.00;;;13.60;99.90;;;;;;5073447;28;20198;-75
2023/10/29 06:17:38;;;;;;;3.90;1.00;;;13.60;99.90;;;;;;5073285;28;20198;-77
2023/10/29 06:20:04;;;;;;;5.60;0.87;;;13.70;99.90;;;;;;5073181;28;20224;-76
2023/10/29 06:22:31;;;;;;;2.97;0.80;;;13.70;99.90;;;;;;5073420;28;20188;-75
2023/10/29 06:24:56;;;;;;;6.67;1.10;;;13.70;99.90;;;;;;5072991;28;20186;-76
2023/10/29 06:27:22;;;;;;;2.10;0.70;;;13.70;99.90;;;;;;5073417;28;20265;-76
2023/10/29 06:29:48;;;;;;;4.83;1.13;;;13.70;99.90;;;;;;5072956;28;20187;-76
2023/10/29 06:32:13;;;;;;;5.27;1.17;;;13.70;99.90;;;;;;5072877;28;20674;-76
2023/10/29 06:34:39;;;;;;;4.33;1.07;;;13.70;99.90;;;;;;5072939;28;20198;-77
2023/10/29 06:37:04;;;;;;;2.60;0.90;;;13.70;99.90;;;;;;5072827;28;20179;-76
2023/10/29 06:39:31;;;;;;;1.70;0.83;;;13.70;99.90;;;;;;5072779;28;20662;-76
2023/10/29 06:41:56;;;;;;;2.67;0.80;;;13.70;99.90;;;;;;5072697;28;20182;-75
2023/10/29 06:44:22;;;;;;;5.63;1.13;;;13.70;99.90;;;;;;5072679;28;20194;-77
2023/10/29 06:46:47;;;;;;;5.67;1.13;;;13.70;99.90;;;;;;5072280;28;20178;-76
2023/10/29 06:49:13;;;;;;;4.93;0.93;;;13.70;99.90;;;;;;5071855;28;20222;-76
2023/10/29 06:51:39;;;;;;;3.17;0.97;;;13.70;99.90;;;;;;5072665;28;20178;-77
2023/10/29 06:54:05;;;;;;;5.33;0.90;;;13.60;99.90;;;;;;5072813;28;20229;-76
2023/10/29 06:56:31;;;;;;;3.43;0.90;;;13.60;99.90;;;;;;5073117;28;20179;-76
2023/10/29 06:58:57;;;;;;;4.00;1.43;;;13.50;99.90;;;;;;5073011;28;20199;-77
2023/10/29 07:01:22;;;;;;;5.73;1.20;;;13.50;99.90;;;;;;5072525;28;20276;-76
2023/10/29 07:03:48;;;;;;;3.20;1.03;;;13.50;99.90;;;;;;5072728;28;20178;-77
2023/10/29 07:06:16;;;;;;;3.33;1.20;;;13.50;99.90;;;;;;5063541;28;20627;-77
2023/10/29 07:08:41;;;;;;;3.87;1.30;;;13.50;99.90;;;;;;5060687;28;20172;-76
2023/10/29 07:11:07;;;;;;;4.33;1.10;;;13.50;99.90;;;;;;5052500;28;20178;-76
2023/10/29 07:13:34;;;;;;;2.77;1.10;;;13.50;99.90;;;;;;5052614;28;20224;-76
2023/10/29 07:16:02;;;;;;;4.43;1.10;;;13.50;99.90;;;;;;5052449;28;20199;-76
2023/10/29 07:18:28;;;;;;;2.47;0.90;;;13.50;99.90;;;;;;5052311;28;20198;-76
2023/10/29 07:20:55;;;;;;;2.93;1.13;;;13.50;99.90;;;;;;5052490;28;20176;-77
2023/10/29 07:23:22;;;;;;;4.00;1.00;;;13.50;99.90;;;;;;5052390;28;20519;-76
2023/10/29 07:25:48;;;;;;;3.93;1.10;;;13.50;99.90;;;;;;5052224;28;20245;-76
2023/10/29 07:28:14;;;;;;;3.93;1.07;;;13.50;99.90;;;;;;5052080;28;20190;-76
2023/10/29 07:30:40;;;;;;;3.53;1.10;;;13.50;99.90;;;;;;5052711;28;20187;-76
2023/10/29 07:33:06;;;;;;;6.47;1.00;;;13.40;99.90;;;;;;5052067;28;20171;-77
2023/10/29 07:35:31;;;;;;;7.03;1.17;;;13.40;99.90;;;;;;5052550;28;20191;-76
2023/10/29 07:37:57;;;;;;;4.30;1.20;;;13.40;99.90;;;;;;5052025;28;20179;-76
2023/10/29 07:40:22;;;;;;;4.20;1.30;;;13.50;99.90;;;;;;5051966;28;20651;-77
2023/10/29 07:42:48;;;;;;;4.37;1.17;;;13.40;99.90;;;;;;5052199;28;20195;-76
2023/10/29 07:45:13;;;;;;;5.40;1.20;;;13.40;99.90;;;;;;5051875;28;20198;-76
2023/10/29 07:47:39;;;;;;;4.07;0.97;;;13.40;99.90;;;;;;5050633;28;20188;-77
2023/10/29 07:50:07;;;;;;;4.53;1.10;;;13.30;99.90;;;;;;5052420;28;20198;-76
2023/10/29 07:52:39;;;;;;;6.90;1.43;;;13.30;99.90;;;;;;5050583;28;20175;-77
2023/10/29 07:55:09;;;;;;;2.83;1.00;;;13.30;99.90;;;;;;5052041;28;20188;-77
2023/10/29 07:57:41;;;;;;;2.87;0.80;;;13.30;99.90;;;;;;5053589;28;20267;-77
2023/10/29 08:00:10;;;;;;;7.60;1.10;;;13.20;99.90;;;;;;5078565;28;20284;-77
2023/10/29 08:02:36;;;;;;;3.13;0.93;;;13.20;99.90;;;;;;5072571;28;20182;-78
2023/10/29 08:05:02;;;;;;;5.67;1.17;;;13.30;99.90;;;;;;5079617;28;20546;-77
2023/10/29 08:07:29;;;;;;;6.97;1.30;;;13.30;99.90;;;;;;5085219;28;20257;-77
2023/10/29 08:09:56;;;;;;;3.63;1.13;;;13.30;99.90;;;;;;5081543;28;20261;-77
2023/10/29 08:12:22;;;;;;;5.77;1.23;;;13.30;99.90;;;;;;5087570;28;20179;-77
2023/10/29 08:14:48;;;;;;;4.60;1.40;;;13.30;99.90;;;;;;5098317;28;20193;-76
2023/10/29 08:17:17;;;;;;;4.70;1.13;;;13.30;99.90;;;;;;5091425;28;20520;-76
2023/10/29 08:19:46;;;;;;;5.77;1.20;;;13.30;99.90;;;;;;5080561;28;20198;-77
2023/10/29 08:22:11;;;;;;;3.27;1.20;;;13.30;99.90;;;;;;5076426;28;20179;-76
2023/10/29 08:24:37;;;;;;;2.57;1.10;;;13.30;99.90;;;;;;5077583;28;20191;-77
2023/10/29 08:27:05;;;;;;;2.43;0.90;;;13.30;99.90;;;;;;5075184;28;20224;-76
2023/10/29 08:29:31;;;;;;;4.37;1.40;;;13.30;99.90;;;;;;5075265;28;20187;-76
2023/10/29 08:31:57;;;;;;;7.13;1.07;;;13.40;99.90;;;;;;5075360;28;20209;-76
2023/10/29 08:34:22;;;;;;;5.63;1.07;;;13.30;99.90;;;;;;5063264;28;20214;-76
2023/10/29 08:36:48;;;;;;;3.63;1.10;;;13.30;99.90;;;;;;5082055;28;20265;-76
2023/10/29 08:39:14;;;;;;;3.23;1.00;;;13.40;99.90;;;;;;5095492;28;20252;-75
2023/10/29 08:41:39;;;;;;;6.17;1.13;;;13.30;99.90;;;;;;5062492;28;20176;-76
2023/10/29 08:44:05;;;;;;;5.87;1.17;;;13.30;99.90;;;;;;5073339;28;20194;-76
2023/10/29 08:46:31;;;;;;;4.33;1.00;;;13.20;99.90;;;;;;5075319;28;20262;-76
2023/10/29 08:48:57;;;;;;;3.07;1.23;;;13.30;99.90;;;;;;5074893;28;20549;-76
2023/10/29 08:51:22;;;;;;;3.80;1.20;;;13.20;99.90;;;;;;5069653;28;20183;-76
2023/10/29 08:53:48;;;;;;;10.03;1.50;;;13.20;99.90;;;;;;5060616;28;20178;-76
2023/10/29 08:56:14;;;;;;;5.90;1.57;;;13.20;99.90;;;;;;5074546;28;20202;-77
2023/10/29 08:58:39;;;;;;;5.80;1.27;;;13.30;99.90;;;;;;5075022;28;20205;-76
2023/10/29 09:01:12;;;;;;;5.70;1.50;;;13.30;99.90;;;;;;5074694;28;20218;-76
2023/10/29 09:03:37;;;;;;;5.27;1.37;;;13.30;99.90;;;;;;5079284;28;20171;-76
2023/10/29 09:06:03;;;;;;;8.03;1.40;;;13.40;99.90;;;;;;5093171;28;20190;-76
2023/10/29 09:08:31;;;;;;;3.93;1.40;;;13.40;99.90;;;;;;5072663;28;20186;-76
2023/10/29 09:10:57;;;;;;;6.27;1.80;;;13.40;99.90;;;;;;5059104;28;20317;-77
2023/10/29 09:13:23;;;;;;;6.40;1.60;;;13.50;99.90;;;;;;5073934;28;20659;-76
2023/10/29 09:15:49;;;;;;;2.70;1.00;;;13.50;99.90;;;;;;5080051;28;20195;-76
2023/10/29 09:18:16;;;;;;;6.73;1.60;;;13.50;99.90;;;;;;5074498;28;20245;-76
2023/10/29 09:20:46;;;;;;;7.60;1.37;;;13.50;99.90;;;;;;5074427;28;20264;-76
2023/10/29 09:23:12;;;;;;;3.90;1.30;;;13.50;99.90;;;;;;5071632;28;20664;-76
2023/10/29 09:25:38;;;;;;;5.97;0.90;;;13.60;99.90;;;;;;5073609;28;20264;-76
2023/10/29 09:28:05;;;;;;;7.10;1.60;;;13.60;99.90;;;;;;5072943;28;20179;-77
2023/10/29 09:30:31;;;;;;;4.33;0.90;;;13.60;99.90;;;;;;5074327;28;20194;-77
2023/10/29 09:32:56;;;;;;;4.40;0.87;;;13.50;99.90;;;;;;5074457;28;20179;-77
2023/10/29 09:35:22;;;;;;;5.03;1.50;;;13.60;99.90;;;;;;5074602;28;20195;-77
2023/10/29 09:37:48;;;;;;;3.50;1.20;;;13.60;99.90;;;;;;5073490;28;20186;-76
2023/10/29 09:40:15;;;;;;;4.90;1.67;;;13.60;99.90;;;;;;5056076;28;20211;-77
2023/10/29 09:42:53;;;;;;;5.20;1.40;;;13.60;99.90;;;;;;5054339;28;20183;-76
2023/10/29 09:45:23;;;;;;;3.43;1.10;;;13.60;99.90;;;;;;5052827;28;20206;-76
2023/10/29 09:47:49;;;;;;;2.70;0.80;;;13.70;99.90;;;;;;5054217;28;20266;-77
2023/10/29 09:50:15;;;;;;;3.73;0.90;;;13.70;99.90;;;;;;5053754;28;20257;-77
2023/10/29 09:52:42;;;;;;;4.27;0.97;;;13.70;99.90;;;;;;5054711;28;20238;-77
2023/10/29 09:55:09;;;;;;;2.93;0.80;;;13.80;99.90;;;;;;5054753;28;20191;-78
2023/10/29 09:57:34;;;;;;;4.23;0.90;;;13.80;99.90;;;;;;5053597;28;20678;-78
2023/10/29 10:00:00;;;;;;;1.77;0.87;;;13.80;99.90;;;;;;5053444;28;20215;-77
2023/10/29 10:02:26;;;;;;;3.67;0.83;;;13.80;99.90;;;;;;5055023;28;20257;-78
2023/10/29 10:04:52;;;;;;;4.37;1.00;;;13.90;99.90;;;;;;5053582;28;20290;-78
2023/10/29 10:07:19;;;;;;;1.77;0.80;;;14.00;99.90;;;;;;5055427;28;20635;-78
2023/10/29 10:09:55;;;;;;;2.20;0.83;;;14.00;99.90;;;;;;5054740;28;20263;-78
2023/10/29 10:12:22;;;;;;;2.70;0.63;;;14.20;99.90;;;;;;5053779;28;20241;-78
2023/10/29 10:14:49;;;;;;;4.70;0.93;;;14.40;99.90;;;;;;5054303;28;20262;-78
2023/10/29 10:17:15;;;;;;;2.80;1.00;;;14.50;99.90;;;;;;5053971;28;20183;-77
2023/10/29 10:19:41;;;;;;;4.73;1.00;;;14.60;99.90;;;;;;5052751;28;20234;-78
2023/10/29 10:22:07;;;;;;;1.80;0.73;;;14.60;99.90;;;;;;5052898;28;20266;-77
2023/10/29 10:24:38;;;;;;;5.03;0.97;;;14.60;99.90;;;;;;5054541;28;20541;-76
2023/10/29 10:27:05;;;;;;;4.03;1.00;;;14.60;99.90;;;;;;5052612;28;20647;-78
2023/10/29 10:29:31;;;;;;;2.00;0.70;;;14.60;99.90;;;;;;5052683;28;20199;-77
2023/10/29 10:32:02;;;;;;;2.33;0.80;;;14.60;99.90;;;;;;5054538;28;20175;-77
2023/10/29 10:34:31;;;;;;;3.53;1.17;;;14.60;99.90;;;;;;5052690;28;20199;-78
2023/10/29 10:37:01;;;;;;;1.57;0.87;;;14.50;99.90;;;;;;5053126;28;20666;-78
2023/10/29 10:39:28;;;;;;;3.50;0.90;;;14.50;99.90;;;;;;5054215;28;20199;-77
2023/10/29 10:41:53;;;;;;;5.10;0.93;;;14.50;99.90;;;;;;5052759;28;20172;-78
2023/10/29 10:44:20;;;;;;;3.60;1.03;;;14.50;99.90;;;;;;5054850;28;20285;-78
2023/10/29 10:46:53;;;;;;;4.23;1.00;;;14.50;99.90;;;;;;5052942;28;20653;-78
2023/10/29 10:49:20;;;;;;;2.57;1.00;;;14.60;99.90;;;;;;5054576;28;20541;-77
2023/10/29 10:51:47;;;;;;;6.23;0.90;;;14.60;99.90;;;;;;5054144;28;20259;-78
2023/10/29 10:54:17;;;;;;;3.57;0.90;;;14.60;99.90;;;;;;5052969;28;20532;-78
2023/10/29 10:56:44;;;;;;;3.97;1.27;;;14.70;99.90;;;;;;5054167;28;20160;-77
2023/10/29 10:59:09;;;;;;;4.43;1.10;;;14.70;99.90;;;;;;5053796;28;20223;-77
2023/10/29 11:01:36;;;;;;;6.63;1.40;;;14.80;99.90;;;;;;5052411;28;20183;-76
2023/10/29 11:04:03;;;;;;;4.90;0.97;;;14.80;99.90;;;;;;5053370;28;20209;-78
2023/10/29 11:06:30;;;;;;;5.40;0.83;;;14.80;99.90;;;;;;5052627;28;20270;-77
2023/10/29 11:08:56;;;;;;;3.40;1.10;;;14.80;99.90;;;;;;5054487;28;20252;-78
2023/10/29 11:11:52;;;;;;;3.40;0.80;;;14.70;99.90;;;;;;5056229;28;20545;-79
2023/10/29 11:14:19;;;;;;;2.43;1.07;;;14.80;99.90;;;;;;5054720;28;20195;-79
2023/10/29 11:16:56;;;;;;;2.67;1.20;;;14.80;99.90;;;;;;5054814;28;20191;-79
2023/10/29 11:19:49;;;;;;;2.77;0.90;;;14.80;99.90;;;;;;5055540;28;20225;-79
2023/10/29 11:22:23;;;;;;;4.20;1.10;;;14.90;99.90;;;;;;5053860;28;20171;-79
2023/10/29 11:25:11;;;;;;;3.63;1.10;;;15.00;99.90;;;;;;5054044;28;20220;-79
2023/10/29 11:27:47;;;;;;;4.83;0.90;;;15.00;99.90;;;;;;5054013;28;20207;-78
2023/10/29 11:30:14;;;;;;;3.43;0.80;;;15.10;99.90;;;;;;5055405;28;20193;-79
2023/10/29 11:32:44;;;;;;;6.30;1.00;;;15.10;99.90;;;;;;5059289;28;20623;-78
2023/10/29 11:35:19;;;;;;;5.37;0.80;;;15.10;99.90;;;;;;5059002;28;20207;-79
2023/10/29 11:37:46;;;;;;;6.07;1.10;;;15.10;99.90;;;;;;5060329;28;20273;-79
2023/10/29 11:40:41;;;;;;;5.53;1.00;;;15.20;99.90;;;;;;5058939;28;20211;-79
2023/10/29 11:43:18;;;;;;;4.30;1.13;;;15.30;99.90;;;;;;5057001;28;20203;-79
2023/10/29 11:45:58;;;;;;;2.30;0.83;;;15.30;99.90;;;;;;5064424;28;20199;-78
2023/10/29 11:48:24;;;;;;;4.03;1.07;;;15.30;99.90;;;;;;5066059;28;20179;-79
2023/10/29 11:51:05;;;;;;;4.23;0.83;;;15.30;99.90;;;;;;5058366;28;20249;-79
2023/10/29 11:53:31;;;;;;;4.97;0.90;;;15.30;99.90;;;;;;5058920;28;20171;-78
2023/10/29 11:56:04;;;;;;;4.67;1.10;;;15.30;99.90;;;;;;5059183;28;20686;-79
2023/10/29 11:58:30;;;;;;;3.37;1.10;;;15.30;99.90;;;;;;5060236;28;20556;-78
2023/10/29 12:00:56;;;;;;;11.57;1.00;;;15.20;99.90;;;;;;5059419;28;20306;-79
2023/10/29 12:03:22;;;;;;;4.07;0.90;;;15.20;99.90;;;;;;5059510;28;20172;-78
2023/10/29 12:05:52;;;;;;;2.63;0.90;;;15.10;99.90;;;;;;5059414;28;20191;-79
2023/10/29 12:08:18;;;;;;;3.63;0.80;;;15.00;99.90;;;;;;5059070;28;20523;-78
2023/10/29 12:11:03;;;;;;;3.70;1.10;;;14.90;99.90;;;;;;5058631;28;20196;-79
2023/10/29 12:13:41;;;;;;;1.60;0.57;;;14.80;99.90;;;;;;5058488;28;20156;-79
2023/10/29 12:16:07;;;;;;;3.53;0.80;;;14.70;99.90;;;;;;5058768;28;20333;-79
2023/10/29 12:18:33;;;;;;;3.77;1.10;;;14.80;99.90;;;;;;5056943;28;20230;-78
2023/10/29 12:21:08;;;;;;;4.17;1.00;;;14.60;99.90;;;;;;5057982;28;20595;-79
2023/10/29 12:23:35;;;;;;;2.83;0.97;;;14.50;99.90;;;;;;5057517;28;20224;-79
2023/10/29 12:26:06;;;;;;;2.50;0.83;;;14.40;99.90;;;;;;5058697;28;20196;-78
2023/10/29 12:28:33;;;;;;;3.70;0.90;;;14.40;99.90;;;;;;5058625;28;20175;-78
2023/10/29 12:30:59;;;;;;;3.00;0.80;;;14.40;99.90;;;;;;5057152;28;20597;-78
2023/10/29 12:33:26;;;;;;;2.37;0.63;;;14.40;99.90;;;;;;5058485;28;20206;-78
2023/10/29 12:35:58;;;;;;;5.03;0.83;;;14.30;99.90;;;;;;5058823;28;20195;-79
2023/10/29 12:38:25;;;;;;;2.20;0.77;;;14.30;99.90;;;;;;5058823;28;20218;-78
2023/10/29 12:41:27;;;;;;;1.60;0.70;;;14.30;99.90;;;;;;5058820;28;20317;-79
2023/10/29 12:43:53;;;;;;;4.87;1.10;;;14.30;99.90;;;;;;5035417;28;20211;-79